createdAt,value
2019-01-31T00:02:10.716Z,13.98
2019-01-31T00:05:01.107Z,13.96
2019-01-31T00:07:37.013Z,13.97
2019-01-31T00:10:19.175Z,13.97
2019-01-31T00:13:11.199Z,13.98
2019-01-31T00:16:01.171Z,13.97
2019-01-31T00:18:45.782Z,13.97
2019-01-31T00:21:42.545Z,13.95
2019-01-31T00:24:20.487Z,13.94
2019-01-31T00:27:01.623Z,13.93
2019-01-31T00:29:40.372Z,13.93
2019-01-31T00:32:15.573Z,13.92
2019-01-31T00:34:56.703Z,13.92
2019-01-31T00:37:38.506Z,13.92
2019-01-31T00:40:16.746Z,13.94
2019-01-31T00:42:52.010Z,13.94
2019-01-31T00:45:36.217Z,13.94
2019-01-31T00:48:27.153Z,13.93
2019-01-31T00:51:16.741Z,13.92
2019-01-31T00:54:05.923Z,13.92
2019-01-31T00:56:47.242Z,13.92
2019-01-31T00:59:39.095Z,13.92
2019-01-31T01:02:17.235Z,13.92
2019-01-31T01:04:49.323Z,13.92
2019-01-31T01:07:24.814Z,13.92
2019-01-31T01:10:02.770Z,13.92
2019-01-31T01:12:52.449Z,13.91
2019-01-31T01:15:30.446Z,13.91
2019-01-31T01:18:09.349Z,13.91
2019-01-31T01:20:42.037Z,13.93
2019-01-31T01:23:26.053Z,13.92
2019-01-31T01:25:58.771Z,13.93
2019-01-31T01:28:40.324Z,13.93
2019-01-31T01:31:24.612Z,13.93
2019-01-31T01:34:08.759Z,13.91
2019-01-31T01:36:43.891Z,13.90
2019-01-31T01:39:19.681Z,13.89
2019-01-31T01:41:55.114Z,13.89
2019-01-31T01:44:31.331Z,13.90
2019-01-31T01:47:24.955Z,13.89
2019-01-31T01:50:08.763Z,13.89
2019-01-31T01:52:53.206Z,13.89
2019-01-31T01:55:47.036Z,13.88
2019-01-31T01:58:19.350Z,13.88
2019-01-31T02:01:03.723Z,13.88
2019-01-31T02:03:45.362Z,13.89
2019-01-31T02:06:35.370Z,13.88
2019-01-31T02:09:40.859Z,13.88
2019-01-31T02:12:13.138Z,13.88
2019-01-31T02:15:05.542Z,13.88
2019-01-31T02:17:49.702Z,13.88
2019-01-31T02:20:31.434Z,13.88
2019-01-31T02:23:03.882Z,13.89
2019-01-31T02:25:39.005Z,13.90
2019-01-31T02:28:26.284Z,13.90
2019-01-31T02:31:04.313Z,13.92
2019-01-31T02:33:42.403Z,13.93
2019-01-31T02:36:18.308Z,13.94
2019-01-31T02:39:11.796Z,13.94
2019-01-31T02:41:49.952Z,13.95
2019-01-31T02:44:40.106Z,13.96
2019-01-31T02:47:15.490Z,13.97
2019-01-31T02:49:56.887Z,13.97
2019-01-31T02:52:45.071Z,13.97
2019-01-31T02:55:40.263Z,14.00
2019-01-31T02:58:24.868Z,14.00
2019-01-31T03:01:03.679Z,14.01
2019-01-31T03:03:54.321Z,14.01
2019-01-31T03:06:59.940Z,14.02
2019-01-31T03:09:41.427Z,14.05
2019-01-31T03:12:17.255Z,14.02
2019-01-31T03:14:50.302Z,14.01
2019-01-31T03:17:43.139Z,14.01
2019-01-31T03:20:21.223Z,14.01
2019-01-31T03:23:02.210Z,14.01
2019-01-31T03:25:37.903Z,14.02
2019-01-31T03:28:29.746Z,13.99
2019-01-31T03:31:05.689Z,14.00
2019-01-31T03:33:56.617Z,13.99
2019-01-31T03:36:32.153Z,13.95
2019-01-31T03:48:32.835Z,13.95
2019-01-31T05:11:46.590Z,13.86
2019-01-31T05:14:22.767Z,13.86
2019-01-31T05:16:57.011Z,13.87
2019-01-31T05:19:27.062Z,13.90
2019-01-31T05:21:57.080Z,13.92
2019-01-31T05:24:27.604Z,13.91
2019-01-31T05:26:58.775Z,13.94
2019-01-31T05:29:37.577Z,13.95
2019-01-31T05:32:09.560Z,13.91
2019-01-31T05:34:40.736Z,13.89
2019-01-31T05:48:51.296Z,13.79
2019-01-31T05:51:21.545Z,13.76
2019-01-31T05:53:54.217Z,13.75
2019-01-31T05:56:26.167Z,13.74
2019-01-31T06:07:41.721Z,13.74
2019-01-31T06:10:15.626Z,13.74
2019-01-31T06:27:22.836Z,13.76
2019-01-31T06:38:54.029Z,13.80
2019-01-31T06:44:08.872Z,13.80
2019-01-31T07:16:42.758Z,13.79
2019-01-31T07:19:13.029Z,13.78
2019-01-31T08:10:51.596Z,13.77
2019-01-31T08:27:53.549Z,13.91
2019-01-31T08:33:50.098Z,13.99
2019-01-31T08:36:28.840Z,14.04
2019-01-31T08:38:59.329Z,14.10
2019-01-31T08:41:32.403Z,14.15
2019-01-31T08:44:08.845Z,14.20
2019-01-31T08:46:38.751Z,14.24
2019-01-31T08:49:09.263Z,14.26
2019-01-31T08:51:39.410Z,14.31
2019-01-31T08:54:09.825Z,14.38
2019-01-31T08:56:38.857Z,14.41
2019-01-31T08:59:08.445Z,14.48
2019-01-31T09:01:37.818Z,14.53
2019-01-31T09:04:06.961Z,14.58
2019-01-31T09:06:39.466Z,14.64
2019-01-31T09:12:15.497Z,14.74
2019-01-31T09:14:40.781Z,14.81
2019-01-31T09:17:13.423Z,14.90
2019-01-31T09:19:42.931Z,15.02
2019-01-31T09:22:15.760Z,15.14
2019-01-31T09:24:57.208Z,15.25
2019-01-31T09:27:39.072Z,15.35
2019-01-31T09:30:19.474Z,15.46
2019-01-31T09:33:06.607Z,15.57
2019-01-31T09:35:38.821Z,15.66
2019-01-31T09:38:23.042Z,15.80
2019-01-31T09:41:01.250Z,15.89
2019-01-31T09:43:33.308Z,16.00
2019-01-31T09:46:05.494Z,16.07
2019-01-31T09:48:49.752Z,16.16
2019-01-31T09:51:41.837Z,16.38
2019-01-31T09:54:14.309Z,16.53
2019-01-31T09:56:55.404Z,16.55
2019-01-31T09:59:33.637Z,16.55
2019-01-31T10:02:17.868Z,16.64
2019-01-31T10:05:06.669Z,16.80
2019-01-31T10:07:54.039Z,16.98
2019-01-31T10:10:38.304Z,17.15
2019-01-31T10:13:38.595Z,17.21
2019-01-31T10:16:36.637Z,17.30
2019-01-31T10:19:38.952Z,17.43
2019-01-31T10:22:29.403Z,17.37
2019-01-31T10:25:04.488Z,17.36
2019-01-31T10:27:43.030Z,17.31
2019-01-31T10:30:21.505Z,17.37
2019-01-31T10:33:05.965Z,17.39
2019-01-31T10:35:37.993Z,17.49
2019-01-31T10:38:12.917Z,17.54
2019-01-31T10:40:59.866Z,17.68
2019-01-31T10:43:46.584Z,17.72
2019-01-31T10:46:42.623Z,17.66
2019-01-31T10:49:24.332Z,17.55
2019-01-31T10:52:09.324Z,17.40
2019-01-31T10:54:52.968Z,17.33
2019-01-31T10:57:25.023Z,17.34
2019-01-31T11:00:07.405Z,17.38
2019-01-31T11:02:55.144Z,17.44
2019-01-31T11:05:43.650Z,17.55
2019-01-31T11:08:21.568Z,17.67
2019-01-31T11:10:56.218Z,17.73
2019-01-31T11:13:53.852Z,17.76
2019-01-31T11:16:35.022Z,17.79
2019-01-31T11:19:13.304Z,17.93
2019-01-31T11:22:00.944Z,17.86
2019-01-31T11:24:55.793Z,17.83
2019-01-31T11:27:40.244Z,17.75
2019-01-31T11:30:44.801Z,17.74
2019-01-31T11:33:36.612Z,17.70
2019-01-31T11:36:12.384Z,17.57
2019-01-31T11:39:00.185Z,17.46
2019-01-31T11:41:41.408Z,17.35
2019-01-31T11:44:34.702Z,17.23
2019-01-31T11:47:15.549Z,17.13
2019-01-31T11:49:51.652Z,17.04
2019-01-31T11:52:39.192Z,16.97
2019-01-31T11:55:14.216Z,16.95
2019-01-31T11:57:55.053Z,16.94
2019-01-31T12:00:26.408Z,16.85
2019-01-31T12:02:56.043Z,16.87
2019-01-31T12:05:25.866Z,16.87
2019-01-31T12:07:55.436Z,16.87
2019-01-31T12:10:25.077Z,16.95
2019-01-31T12:12:54.874Z,17.11
2019-01-31T12:15:25.200Z,17.26
2019-01-31T12:17:54.934Z,17.30
2019-01-31T12:20:24.703Z,17.22
2019-01-31T12:22:54.337Z,17.06
2019-01-31T12:25:24.172Z,16.94
2019-01-31T12:27:53.986Z,16.92
2019-01-31T12:30:25.949Z,16.98
2019-01-31T12:32:55.641Z,17.03
2019-01-31T12:35:28.386Z,17.07
2019-01-31T12:37:58.152Z,17.11
2019-01-31T12:40:27.944Z,17.18
2019-01-31T12:42:57.763Z,17.29
2019-01-31T12:45:27.671Z,17.39
2019-01-31T12:47:57.470Z,17.52
2019-01-31T12:50:27.207Z,17.59
2019-01-31T12:52:56.911Z,17.73
2019-01-31T12:55:26.700Z,17.90
2019-01-31T12:57:56.811Z,18.11
2019-01-31T13:00:27.942Z,18.27
2019-01-31T13:02:57.566Z,18.41
2019-01-31T13:05:27.484Z,18.40
2019-01-31T13:07:56.883Z,18.37
2019-01-31T13:10:26.623Z,18.34
2019-01-31T13:12:56.696Z,18.25
2019-01-31T13:15:29.286Z,18.17
2019-01-31T13:17:58.909Z,18.07
2019-01-31T13:20:28.817Z,17.84
2019-01-31T13:22:58.439Z,17.75
2019-01-31T13:25:28.581Z,17.73
2019-01-31T13:27:58.681Z,17.81
2019-01-31T13:30:28.426Z,17.92
2019-01-31T13:32:58.283Z,17.97
2019-01-31T13:35:28.107Z,18.02
2019-01-31T13:37:57.921Z,18.02
2019-01-31T13:40:27.580Z,17.94
2019-01-31T13:42:57.450Z,17.93
2019-01-31T13:45:29.687Z,18.01
2019-01-31T13:48:01.692Z,18.07
2019-01-31T13:50:31.330Z,18.15
2019-01-31T13:53:01.234Z,18.18
2019-01-31T13:55:32.278Z,18.25
2019-01-31T13:58:02.088Z,18.26
2019-01-31T14:00:32.159Z,18.19
2019-01-31T14:03:01.873Z,18.19
2019-01-31T14:05:31.773Z,18.21
2019-01-31T14:08:01.271Z,18.25
2019-01-31T14:10:31.030Z,18.26
2019-01-31T14:13:01.292Z,18.28
2019-01-31T14:15:34.197Z,18.31
2019-01-31T14:18:04.230Z,18.30
2019-01-31T14:20:34.400Z,18.32
2019-01-31T14:23:04.234Z,18.34
2019-01-31T14:25:34.062Z,18.34
2019-01-31T14:28:03.722Z,18.31
2019-01-31T14:30:39.209Z,18.28
2019-01-31T14:33:19.940Z,18.30
2019-01-31T14:35:49.856Z,18.20
2019-01-31T14:38:19.453Z,18.14
2019-01-31T14:40:49.008Z,18.04
2019-01-31T14:43:18.909Z,17.92
2019-01-31T14:45:47.844Z,17.86
2019-01-31T14:48:16.750Z,17.77
2019-01-31T14:50:46.531Z,17.68
2019-01-31T14:53:16.269Z,17.53
2019-01-31T14:55:45.314Z,17.35
2019-01-31T14:58:14.356Z,17.18
2019-01-31T15:00:44.263Z,17.09
2019-01-31T15:03:13.561Z,17.03
2019-01-31T15:05:42.746Z,17.06
2019-01-31T15:08:11.789Z,17.13
2019-01-31T15:10:40.766Z,17.21
2019-01-31T15:13:10.184Z,17.31
2019-01-31T15:15:39.185Z,17.40
2019-01-31T15:18:08.121Z,17.50
2019-01-31T15:20:42.337Z,17.63
2019-01-31T15:23:13.572Z,17.76
2019-01-31T15:25:42.600Z,17.88
2019-01-31T15:28:11.794Z,18.02
2019-01-31T15:30:41.043Z,18.14
2019-01-31T15:33:12.470Z,18.24
2019-01-31T15:35:42.006Z,18.25
2019-01-31T15:38:11.473Z,18.26
2019-01-31T15:40:42.923Z,18.29
2019-01-31T15:43:12.151Z,18.20
2019-01-31T15:45:41.079Z,18.15
2019-01-31T15:48:11.028Z,18.32
2019-01-31T15:50:40.837Z,18.49
2019-01-31T15:53:10.102Z,18.55
2019-01-31T15:55:39.905Z,18.54
2019-01-31T15:58:09.847Z,18.47
2019-01-31T16:00:43.197Z,18.34
2019-01-31T16:03:15.515Z,18.22
2019-01-31T16:05:45.196Z,18.12
2019-01-31T16:08:15.126Z,18.07
2019-01-31T16:10:45.051Z,18.02
2019-01-31T16:13:14.889Z,17.95
2019-01-31T16:15:44.854Z,17.89
2019-01-31T16:18:14.424Z,17.79
2019-01-31T16:20:44.336Z,17.70
2019-01-31T16:23:13.819Z,17.64
2019-01-31T16:25:47.488Z,17.53
2019-01-31T16:28:15.776Z,17.48
2019-01-31T16:30:45.372Z,17.40
2019-01-31T16:33:15.173Z,17.32
2019-01-31T16:35:44.921Z,17.23
2019-01-31T16:38:14.680Z,17.12
2019-01-31T16:40:44.707Z,17.02
2019-01-31T16:43:14.798Z,16.96
2019-01-31T16:45:46.262Z,16.88
2019-01-31T16:48:16.206Z,16.77
2019-01-31T16:50:46.059Z,16.67
2019-01-31T16:53:15.739Z,16.54
2019-01-31T16:55:45.686Z,16.46
2019-01-31T16:58:15.005Z,16.41
2019-01-31T17:00:44.150Z,16.40
2019-01-31T17:03:14.164Z,16.40
2019-01-31T17:05:42.945Z,16.46
2019-01-31T17:08:11.860Z,16.48
2019-01-31T17:10:40.768Z,16.52
2019-01-31T17:13:09.685Z,16.56
2019-01-31T17:15:38.580Z,16.63
2019-01-31T17:18:11.244Z,16.69
2019-01-31T17:20:42.155Z,16.71
2019-01-31T17:23:11.035Z,16.72
2019-01-31T17:25:42.107Z,16.68
2019-01-31T17:28:13.100Z,16.64
2019-01-31T17:30:41.985Z,16.60
2019-01-31T17:33:11.091Z,16.57
2019-01-31T17:35:39.929Z,16.57
2019-01-31T17:38:09.002Z,16.51
2019-01-31T17:40:39.483Z,16.43
2019-01-31T17:43:08.965Z,16.34
2019-01-31T17:45:37.755Z,16.27
2019-01-31T17:48:07.876Z,16.21
2019-01-31T17:50:36.696Z,16.13
2019-01-31T17:53:05.543Z,16.05
2019-01-31T17:55:34.551Z,16.00
2019-01-31T17:58:03.460Z,15.95
2019-01-31T18:00:54.938Z,15.88
2019-01-31T18:03:27.192Z,15.86
2019-01-31T18:05:56.960Z,15.82
2019-01-31T18:08:26.832Z,15.80
2019-01-31T18:10:56.289Z,15.77
2019-01-31T18:13:26.018Z,15.73
2019-01-31T18:15:55.753Z,15.68
2019-01-31T18:18:24.663Z,15.65
2019-01-31T18:20:53.463Z,15.61
2019-01-31T18:23:23.010Z,15.57
2019-01-31T18:25:52.626Z,15.54
2019-01-31T18:28:22.109Z,15.50
2019-01-31T18:30:53.323Z,15.46
2019-01-31T18:33:22.432Z,15.43
2019-01-31T18:35:51.404Z,15.41
2019-01-31T18:38:20.381Z,15.40
2019-01-31T18:40:49.448Z,15.39
2019-01-31T18:43:19.582Z,15.40
2019-01-31T18:45:53.570Z,15.38
2019-01-31T18:48:19.722Z,15.37
2019-01-31T18:50:48.589Z,15.39
2019-01-31T18:53:17.619Z,15.40
2019-01-31T18:55:46.553Z,15.40
2019-01-31T18:58:15.572Z,15.41
2019-01-31T19:00:46.616Z,15.42
2019-01-31T19:03:15.373Z,15.41
2019-01-31T19:05:44.487Z,15.41
2019-01-31T19:08:13.551Z,15.41
2019-01-31T19:10:43.864Z,15.42
2019-01-31T19:13:13.065Z,15.41
2019-01-31T19:15:42.045Z,15.41
2019-01-31T19:18:10.867Z,15.41
2019-01-31T19:20:41.287Z,15.42
2019-01-31T19:23:11.144Z,15.43
2019-01-31T19:25:40.271Z,15.43
2019-01-31T19:28:12.994Z,15.43
2019-01-31T19:30:43.006Z,15.44
2019-01-31T19:45:51.128Z,15.43
2019-01-31T19:48:21.164Z,15.44
2019-01-31T19:50:51.082Z,15.46
2019-01-31T19:53:20.733Z,15.45
2019-01-31T19:55:50.535Z,15.43
2019-01-31T19:58:20.384Z,15.39
2019-01-31T20:00:50.478Z,15.36
2019-01-31T20:03:20.341Z,15.34
2019-01-31T20:05:50.189Z,15.31
2019-01-31T20:08:19.974Z,15.30
2019-01-31T20:10:49.959Z,15.29
2019-01-31T20:13:19.759Z,15.26
2019-01-31T20:15:49.760Z,15.24
2019-01-31T20:18:19.695Z,15.24
2019-01-31T20:20:49.546Z,15.24
2019-01-31T20:23:19.475Z,15.26
2019-01-31T20:25:49.508Z,15.24
2019-01-31T20:28:20.639Z,15.24
2019-01-31T20:30:50.216Z,15.24
2019-01-31T20:33:21.574Z,15.22
2019-01-31T20:35:53.480Z,15.23
2019-01-31T20:38:23.271Z,15.20
2019-01-31T20:40:53.239Z,15.20
2019-01-31T20:43:23.421Z,15.20
2019-01-31T20:45:53.491Z,15.19
2019-01-31T20:48:23.614Z,15.19
2019-01-31T20:50:53.593Z,15.19
2019-01-31T20:53:23.673Z,15.19
2019-01-31T20:56:00.194Z,15.19
